Rio Largo, Brazil
Current Conditions -  °F | °C
As of 12:00 PM on Saturday 25 Oct 2014 (Local Time) from SBMO Reporting Station
Few Clouds Few Clouds  
Wind Chill: 82°   Ceiling: Unl
Heat Index: 85°   Visibility: 6mi
Dew Point: 66°   Wind: 14mph
Humidity: 58%   Direction: 100°E
Pressure: 29.94"   Gusts: NA
Location:  9.48°S, 35.84°W
Report Text: SBMO 251500Z 10012KT 9999 FEW020 28/19 Q1014
Loading
Personal Weather Stations






























Interactive Weather Map
Tropical Storm Tracking
New forecast layout! Learn more

10-Day Weather Forecast

Advertisements
Track Severe Weather on mobile